sensor_id;sensor_type;location;lat;lon;timestamp;pressure;altitude;pressure_sealevel;temperature;humidity
7748;BME280;3918;42.564;23.164;2024-02-26T05:03:31;-11650.84;;;-142.29;100.00
7748;BME280;3918;42.564;23.164;2024-02-26T05:05:58;-11650.84;;;-142.29;100.00
7748;BME280;3918;42.564;23.164;2024-02-26T05:08:25;-11650.84;;;-142.29;100.00
7748;BME280;3918;42.564;23.164;2024-02-26T05:10:53;-11650.84;;;-142.29;100.00
7748;BME280;3918;42.564;23.164;2024-02-26T05:13:19;-11650.84;;;-142.29;100.00
7748;BME280;3918;42.564;23.164;2024-02-26T05:15:46;-11650.84;;;-142.29;100.00
7748;BME280;3918;42.564;23.164;2024-02-26T05:18:14;-11650.84;;;-142.29;100.00
7748;BME280;3918;42.564;23.164;2024-02-26T05:20:42;-11650.84;;;-142.29;100.00
7748;BME280;3918;42.564;23.164;2024-02-26T05:23:09;-11650.84;;;-142.29;100.00
7748;BME280;3918;42.564;23.164;2024-02-26T05:25:36;-11650.84;;;-142.29;100.00
7748;BME280;3918;42.564;23.164;2024-02-26T05:28:03;-11650.84;;;-142.29;100.00
7748;BME280;3918;42.564;23.164;2024-02-26T05:30:30;-11650.84;;;-142.29;100.00
7748;BME280;3918;42.564;23.164;2024-02-26T05:32:57;-11650.84;;;-142.29;100.00
7748;BME280;3918;42.564;23.164;2024-02-26T05:35:24;-11650.84;;;-142.29;100.00
7748;BME280;3918;42.564;23.164;2024-02-26T05:37:53;-11650.84;;;-142.29;100.00
7748;BME280;3918;42.564;23.164;2024-02-26T05:40:20;-11650.84;;;-142.29;100.00
7748;BME280;3918;42.564;23.164;2024-02-26T05:42:47;-11650.84;;;-142.29;100.00
7748;BME280;3918;42.564;23.164;2024-02-26T05:45:14;-11650.84;;;-142.29;100.00
7748;BME280;3918;42.564;23.164;2024-02-26T05:47:41;-11650.84;;;-142.29;100.00
7748;BME280;3918;42.564;23.164;2024-02-26T05:50:11;-11650.84;;;-142.29;100.00
7748;BME280;3918;42.564;23.164;2024-02-26T05:52:38;-11650.84;;;-142.29;100.00
7748;BME280;3918;42.564;23.164;2024-02-26T05:55:08;-11650.84;;;-142.29;100.00
7748;BME280;3918;42.564;23.164;2024-02-26T05:57:34;-11650.84;;;-142.29;100.00
7748;BME280;3918;42.564;23.164;2024-02-26T06:00:02;-11650.84;;;-142.29;100.00
7748;BME280;3918;42.564;23.164;2024-02-26T06:02:29;-11650.84;;;-142.29;100.00
7748;BME280;3918;42.564;23.164;2024-02-26T06:04:56;-11650.84;;;-142.29;100.00
7748;BME280;3918;42.564;23.164;2024-02-26T06:07:23;-11650.84;;;-142.29;100.00
7748;BME280;3918;42.564;23.164;2024-02-26T06:09:50;-11650.84;;;-142.29;100.00
7748;BME280;3918;42.564;23.164;2024-02-26T06:12:18;-11650.84;;;-142.29;100.00
7748;BME280;3918;42.564;23.164;2024-02-26T06:14:45;-11650.84;;;-142.29;100.00
7748;BME280;3918;42.564;23.164;2024-02-26T06:17:12;-11650.84;;;-142.29;100.00
7748;BME280;3918;42.564;23.164;2024-02-26T06:19:39;-11650.84;;;-142.29;100.00
7748;BME280;3918;42.564;23.164;2024-02-26T06:22:05;-11650.84;;;-142.29;100.00
7748;BME280;3918;42.564;23.164;2024-02-26T06:24:32;-11650.84;;;-142.29;100.00
7748;BME280;3918;42.564;23.164;2024-02-26T06:26:59;-11650.84;;;-142.29;100.00
7748;BME280;3918;42.564;23.164;2024-02-26T06:29:27;-11650.84;;;-142.29;100.00
7748;BME280;3918;42.564;23.164;2024-02-26T06:31:54;-11650.84;;;-142.29;100.00
7748;BME280;3918;42.564;23.164;2024-02-26T06:34:21;-11650.84;;;-142.29;100.00
7748;BME280;3918;42.564;23.164;2024-02-26T06:36:47;-11650.84;;;-142.29;100.00
7748;BME280;3918;42.564;23.164;2024-02-26T06:39:14;-11650.84;;;-142.29;100.00
7748;BME280;3918;42.564;23.164;2024-02-26T06:41:41;-11650.84;;;-142.29;100.00
7748;BME280;3918;42.564;23.164;2024-02-26T06:44:08;-11650.84;;;-142.29;100.00
7748;BME280;3918;42.564;23.164;2024-02-26T06:46:36;-11650.84;;;-142.29;100.00
7748;BME280;3918;42.564;23.164;2024-02-26T06:49:03;-11650.84;;;-142.29;100.00
7748;BME280;3918;42.564;23.164;2024-02-26T06:51:29;-11650.84;;;-142.29;100.00
7748;BME280;3918;42.564;23.164;2024-02-26T06:53:56;-11650.84;;;-142.29;100.00
7748;BME280;3918;42.564;23.164;2024-02-26T06:56:23;-11650.84;;;-142.29;100.00
7748;BME280;3918;42.564;23.164;2024-02-26T06:58:50;-11650.84;;;-142.29;100.00
7748;BME280;3918;42.564;23.164;2024-02-26T07:01:17;-11650.84;;;-142.29;100.00
7748;BME280;3918;42.564;23.164;2024-02-26T07:03:45;-11650.84;;;-142.29;100.00
7748;BME280;3918;42.564;23.164;2024-02-26T07:06:12;-11650.84;;;-142.29;100.00
7748;BME280;3918;42.564;23.164;2024-02-26T07:08:39;-11650.84;;;-142.29;100.00
7748;BME280;3918;42.564;23.164;2024-02-26T07:11:07;-11650.84;;;-142.29;100.00
7748;BME280;3918;42.564;23.164;2024-02-26T07:13:35;-11650.84;;;-142.29;100.00
7748;BME280;3918;42.564;23.164;2024-02-26T07:16:02;-11650.84;;;-142.29;100.00
7748;BME280;3918;42.564;23.164;2024-02-26T07:18:28;-11650.84;;;-142.29;100.00
7748;BME280;3918;42.564;23.164;2024-02-26T07:20:57;-11650.84;;;-142.29;100.00
7748;BME280;3918;42.564;23.164;2024-02-26T07:23:23;-11650.84;;;-142.29;100.00
7748;BME280;3918;42.564;23.164;2024-02-26T07:25:50;-11650.84;;;-142.29;100.00
7748;BME280;3918;42.564;23.164;2024-02-26T07:28:18;-11650.84;;;-142.29;100.00
7748;BME280;3918;42.564;23.164;2024-02-26T07:30:45;-11650.84;;;-142.29;100.00
7748;BME280;3918;42.564;23.164;2024-02-26T07:33:12;-11650.84;;;-142.29;100.00
7748;BME280;3918;42.564;23.164;2024-02-26T07:35:38;-11650.84;;;-142.29;100.00
7748;BME280;3918;42.564;23.164;2024-02-26T07:38:07;-11650.84;;;-142.29;100.00
7748;BME280;3918;42.564;23.164;2024-02-26T07:40:34;-11650.84;;;-142.29;100.00
7748;BME280;3918;42.564;23.164;2024-02-26T07:43:01;-11650.84;;;-142.29;100.00
7748;BME280;3918;42.564;23.164;2024-02-26T07:45:28;-11650.84;;;-142.29;100.00
7748;BME280;3918;42.564;23.164;2024-02-26T07:47:55;-11650.84;;;-142.29;100.00
7748;BME280;3918;42.564;23.164;2024-02-26T07:50:21;-11650.84;;;-142.29;100.00
7748;BME280;3918;42.564;23.164;2024-02-26T07:52:48;-11650.84;;;-142.29;100.00
7748;BME280;3918;42.564;23.164;2024-02-26T07:55:18;-11650.84;;;-142.29;100.00
7748;BME280;3918;42.564;23.164;2024-02-26T07:57:44;-11650.84;;;-142.29;100.00
7748;BME280;3918;42.564;23.164;2024-02-26T08:00:12;-11650.84;;;-142.29;100.00
7748;BME280;3918;42.564;23.164;2024-02-26T08:02:42;-11650.84;;;-142.29;100.00
7748;BME280;3918;42.564;23.164;2024-02-26T08:05:08;-11650.84;;;-142.29;100.00
7748;BME280;3918;42.564;23.164;2024-02-26T08:07:35;-11650.84;;;-142.29;100.00
7748;BME280;3918;42.564;23.164;2024-02-26T08:10:02;-11650.84;;;-142.29;100.00
7748;BME280;3918;42.564;23.164;2024-02-26T08:12:30;-11650.84;;;-142.29;100.00
7748;BME280;3918;42.564;23.164;2024-02-26T08:14:57;-11650.84;;;-142.29;100.00
7748;BME280;3918;42.564;23.164;2024-02-26T08:17:24;-11650.84;;;-142.29;100.00
7748;BME280;3918;42.564;23.164;2024-02-26T08:19:52;-11650.84;;;-142.29;100.00
7748;BME280;3918;42.564;23.164;2024-02-26T08:22:19;-11650.84;;;-142.29;100.00
7748;BME280;3918;42.564;23.164;2024-02-26T08:24:46;-11650.84;;;-142.29;100.00
7748;BME280;3918;42.564;23.164;2024-02-26T08:27:12;-11650.84;;;-142.29;100.00
7748;BME280;3918;42.564;23.164;2024-02-26T08:29:41;-11650.84;;;-142.29;100.00
7748;BME280;3918;42.564;23.164;2024-02-26T08:32:07;-11650.84;;;-142.29;100.00
7748;BME280;3918;42.564;23.164;2024-02-26T08:34:34;-11650.84;;;-142.29;100.00
7748;BME280;3918;42.564;23.164;2024-02-26T08:37:01;-11650.84;;;-142.29;100.00
7748;BME280;3918;42.564;23.164;2024-02-26T08:39:28;-11650.84;;;-142.29;100.00
7748;BME280;3918;42.564;23.164;2024-02-26T08:41:55;-11650.84;;;-142.29;100.00
7748;BME280;3918;42.564;23.164;2024-02-26T08:44:21;-11650.84;;;-142.29;100.00
7748;BME280;3918;42.564;23.164;2024-02-26T08:46:49;-11650.84;;;-142.29;100.00
7748;BME280;3918;42.564;23.164;2024-02-26T08:49:16;-11650.84;;;-142.29;100.00
7748;BME280;3918;42.564;23.164;2024-02-26T08:51:43;-11650.84;;;-142.29;100.00
7748;BME280;3918;42.564;23.164;2024-02-26T08:54:10;-11650.84;;;-142.29;100.00
7748;BME280;3918;42.564;23.164;2024-02-26T08:56:37;-11650.84;;;-142.29;100.00
7748;BME280;3918;42.564;23.164;2024-02-26T08:59:04;-11650.84;;;-142.29;100.00
7748;BME280;3918;42.564;23.164;2024-02-26T09:01:31;-11650.84;;;-142.29;100.00
7748;BME280;3918;42.564;23.164;2024-02-26T09:03:59;-11650.84;;;-142.29;100.00
7748;BME280;3918;42.564;23.164;2024-02-26T09:06:39;-11650.84;;;-142.29;100.00
7748;BME280;3918;42.564;23.164;2024-02-26T09:09:06;-11650.84;;;-142.29;100.00
7748;BME280;3918;42.564;23.164;2024-02-26T09:11:32;-11650.84;;;-142.29;100.00
7748;BME280;3918;42.564;23.164;2024-02-26T09:13:59;-11650.84;;;-142.29;100.00
7748;BME280;3918;42.564;23.164;2024-02-26T09:16:26;-11650.84;;;-142.29;100.00
7748;BME280;3918;42.564;23.164;2024-02-26T09:18:53;-11650.84;;;-142.29;100.00
7748;BME280;3918;42.564;23.164;2024-02-26T09:21:21;-11650.84;;;-142.29;100.00
7748;BME280;3918;42.564;23.164;2024-02-26T09:23:50;-11650.84;;;-142.29;100.00
7748;BME280;3918;42.564;23.164;2024-02-26T09:26:16;-11650.84;;;-142.29;100.00
7748;BME280;3918;42.564;23.164;2024-02-26T09:28:43;-11650.84;;;-142.29;100.00
7748;BME280;3918;42.564;23.164;2024-02-26T09:31:10;-11650.84;;;-142.29;100.00
7748;BME280;3918;42.564;23.164;2024-02-26T09:33:37;-11650.84;;;-142.29;100.00
7748;BME280;3918;42.564;23.164;2024-02-26T09:36:04;-11650.84;;;-142.29;100.00
7748;BME280;3918;42.564;23.164;2024-02-26T09:38:33;-11650.84;;;-142.29;100.00
7748;BME280;3918;42.564;23.164;2024-02-26T09:41:03;-11650.84;;;-142.29;100.00
7748;BME280;3918;42.564;23.164;2024-02-26T09:43:34;-11650.84;;;-142.29;100.00
7748;BME280;3918;42.564;23.164;2024-02-26T09:46:01;-11650.84;;;-142.29;100.00
7748;BME280;3918;42.564;23.164;2024-02-26T09:48:29;-11650.84;;;-142.29;100.00
7748;BME280;3918;42.564;23.164;2024-02-26T09:50:56;-11650.84;;;-142.29;100.00
7748;BME280;3918;42.564;23.164;2024-02-26T09:53:23;-11650.84;;;-142.29;100.00
7748;BME280;3918;42.564;23.164;2024-02-26T09:55:51;-11650.84;;;-142.29;100.00
7748;BME280;3918;42.564;23.164;2024-02-26T09:58:18;-11650.84;;;-142.29;100.00
7748;BME280;3918;42.564;23.164;2024-02-26T10:00:49;-11650.84;;;-142.29;100.00
7748;BME280;3918;42.564;23.164;2024-02-26T10:03:18;-11650.84;;;-142.29;100.00
7748;BME280;3918;42.564;23.164;2024-02-26T10:05:49;-11650.84;;;-142.29;100.00
7748;BME280;3918;42.564;23.164;2024-02-26T10:08:18;-11650.84;;;-142.29;100.00
7748;BME280;3918;42.564;23.164;2024-02-26T10:10:47;-11650.84;;;-142.29;100.00
7748;BME280;3918;42.564;23.164;2024-02-26T10:13:16;-11650.84;;;-142.29;100.00
7748;BME280;3918;42.564;23.164;2024-02-26T10:15:45;-11650.84;;;-142.29;100.00
7748;BME280;3918;42.564;23.164;2024-02-26T10:18:11;-11650.84;;;-142.29;100.00
7748;BME280;3918;42.564;23.164;2024-02-26T10:20:38;-11650.84;;;-142.29;100.00
7748;BME280;3918;42.564;23.164;2024-02-26T10:23:05;-11650.84;;;-142.29;100.00
7748;BME280;3918;42.564;23.164;2024-02-26T10:25:31;-11650.84;;;-142.29;100.00
7748;BME280;3918;42.564;23.164;2024-02-26T10:28:00;-11650.84;;;-142.29;100.00
7748;BME280;3918;42.564;23.164;2024-02-26T10:30:29;-11650.84;;;-142.29;100.00
7748;BME280;3918;42.564;23.164;2024-02-26T10:32:56;-11650.84;;;-142.29;100.00
7748;BME280;3918;42.564;23.164;2024-02-26T10:35:23;-11650.84;;;-142.29;99.94
7748;BME280;3918;42.564;23.164;2024-02-26T10:37:51;-11650.84;;;-142.29;100.00
7748;BME280;3918;42.564;23.164;2024-02-26T10:40:19;-11650.84;;;-142.29;100.00
7748;BME280;3918;42.564;23.164;2024-02-26T10:42:46;-11650.84;;;-142.29;100.00
7748;BME280;3918;42.564;23.164;2024-02-26T10:45:12;-11650.84;;;-142.29;100.00
7748;BME280;3918;42.564;23.164;2024-02-26T10:47:41;-11650.84;;;-142.29;100.00
7748;BME280;3918;42.564;23.164;2024-02-26T10:50:08;-11650.84;;;-142.29;100.00
7748;BME280;3918;42.564;23.164;2024-02-26T10:52:36;-11650.84;;;-142.29;98.84
7748;BME280;3918;42.564;23.164;2024-02-26T10:55:04;-11650.84;;;-142.29;97.14
7748;BME280;3918;42.564;23.164;2024-02-26T10:57:33;-11650.84;;;-142.29;92.73
7748;BME280;3918;42.564;23.164;2024-02-26T11:00:04;-11650.84;;;-142.29;92.70
7748;BME280;3918;42.564;23.164;2024-02-26T11:02:36;-11650.84;;;-142.29;94.79
7748;BME280;3918;42.564;23.164;2024-02-26T11:05:04;-11650.84;;;-142.29;95.03
7748;BME280;3918;42.564;23.164;2024-02-26T11:07:32;-11650.84;;;-142.29;93.47
7748;BME280;3918;42.564;23.164;2024-02-26T11:10:02;-11650.84;;;-142.29;94.12
7748;BME280;3918;42.564;23.164;2024-02-26T11:12:30;-11650.84;;;-142.29;94.23
7748;BME280;3918;42.564;23.164;2024-02-26T11:14:58;-11650.84;;;-142.29;91.01
7748;BME280;3918;42.564;23.164;2024-02-26T11:17:27;-11650.84;;;-142.29;92.44
7748;BME280;3918;42.564;23.164;2024-02-26T11:19:57;-11650.84;;;-142.29;90.76
7748;BME280;3918;42.564;23.164;2024-02-26T11:22:25;-11650.84;;;-142.29;90.56
7748;BME280;3918;42.564;23.164;2024-02-26T11:24:53;-11650.84;;;-142.29;91.53
7748;BME280;3918;42.564;23.164;2024-02-26T11:27:25;-11650.84;;;-142.29;89.12
7748;BME280;3918;42.564;23.164;2024-02-26T11:29:56;-11650.84;;;-142.29;87.55
7748;BME280;3918;42.564;23.164;2024-02-26T11:32:25;-11650.84;;;-142.29;89.10
7748;BME280;3918;42.564;23.164;2024-02-26T11:34:53;-11650.84;;;-142.29;87.62
7748;BME280;3918;42.564;23.164;2024-02-26T11:37:20;-11650.84;;;-142.29;87.96
7748;BME280;3918;42.564;23.164;2024-02-26T11:39:51;-11650.84;;;-142.29;89.31
7748;BME280;3918;42.564;23.164;2024-02-26T11:42:23;-11650.84;;;-142.29;86.33
7748;BME280;3918;42.564;23.164;2024-02-26T11:44:50;-11650.84;;;-142.29;81.18
7748;BME280;3918;42.564;23.164;2024-02-26T11:47:19;-11650.84;;;-142.29;82.55
7748;BME280;3918;42.564;23.164;2024-02-26T11:49:46;-11650.84;;;-142.29;83.16
7748;BME280;3918;42.564;23.164;2024-02-26T11:52:14;-11650.84;;;-142.29;85.42
7748;BME280;3918;42.564;23.164;2024-02-26T11:54:44;-11650.84;;;-142.29;83.48
7748;BME280;3918;42.564;23.164;2024-02-26T11:57:23;-11650.84;;;-142.29;80.55
7748;BME280;3918;42.564;23.164;2024-02-26T11:59:49;-11650.84;;;-142.29;79.69
7748;BME280;3918;42.564;23.164;2024-02-26T12:02:38;-11650.84;;;-142.29;77.91
7748;BME280;3918;42.564;23.164;2024-02-26T12:05:07;-11650.84;;;-142.29;81.63
7748;BME280;3918;42.564;23.164;2024-02-26T12:07:37;-11650.84;;;-142.29;79.55
7748;BME280;3918;42.564;23.164;2024-02-26T12:10:24;-11650.84;;;-142.29;77.44
7748;BME280;3918;42.564;23.164;2024-02-26T12:13:04;-11650.84;;;-142.29;80.30
7748;BME280;3918;42.564;23.164;2024-02-26T12:15:33;-11650.84;;;-142.29;81.83
7748;BME280;3918;42.564;23.164;2024-02-26T12:18:01;-11650.84;;;-142.29;80.21
7748;BME280;3918;42.564;23.164;2024-02-26T12:20:29;-11650.84;;;-142.29;82.52
7748;BME280;3918;42.564;23.164;2024-02-26T12:22:56;-11650.84;;;-142.29;82.60
7748;BME280;3918;42.564;23.164;2024-02-26T12:25:24;-11650.84;;;-142.29;81.78
7748;BME280;3918;42.564;23.164;2024-02-26T12:27:52;-11650.84;;;-142.29;77.55
7748;BME280;3918;42.564;23.164;2024-02-26T12:30:20;-11650.84;;;-142.29;77.31
7748;BME280;3918;42.564;23.164;2024-02-26T12:32:48;-11650.84;;;-142.29;79.63
7748;BME280;3918;42.564;23.164;2024-02-26T12:35:15;-11650.84;;;-142.29;80.01
7748;BME280;3918;42.564;23.164;2024-02-26T12:37:43;-11650.84;;;-142.29;79.85
7748;BME280;3918;42.564;23.164;2024-02-26T12:40:11;-11650.84;;;-142.29;78.36
7748;BME280;3918;42.564;23.164;2024-02-26T12:42:38;-11650.84;;;-142.29;79.47
7748;BME280;3918;42.564;23.164;2024-02-26T12:45:06;-11650.84;;;-142.29;79.37
7748;BME280;3918;42.564;23.164;2024-02-26T12:47:37;-11650.84;;;-142.29;78.77
7748;BME280;3918;42.564;23.164;2024-02-26T12:50:05;-11650.84;;;-142.29;79.07
7748;BME280;3918;42.564;23.164;2024-02-26T12:52:33;-11650.84;;;-142.29;80.52
7748;BME280;3918;42.564;23.164;2024-02-26T12:55:02;-11650.84;;;-142.29;79.31
7748;BME280;3918;42.564;23.164;2024-02-26T12:57:30;-11650.84;;;-142.29;80.09
7748;BME280;3918;42.564;23.164;2024-02-26T12:59:58;-11650.84;;;-142.29;80.72
7748;BME280;3918;42.564;23.164;2024-02-26T13:02:25;-11650.84;;;-142.29;77.92
7748;BME280;3918;42.564;23.164;2024-02-26T13:04:55;-11650.84;;;-142.29;78.04
7748;BME280;3918;42.564;23.164;2024-02-26T13:07:22;-11650.84;;;-142.29;76.48
7748;BME280;3918;42.564;23.164;2024-02-26T13:09:49;-11650.84;;;-142.29;78.13
7748;BME280;3918;42.564;23.164;2024-02-26T13:12:16;-11650.84;;;-142.29;76.90
7748;BME280;3918;42.564;23.164;2024-02-26T13:14:43;-11650.84;;;-142.29;77.58
7748;BME280;3918;42.564;23.164;2024-02-26T13:17:10;-11650.84;;;-142.29;75.25
7748;BME280;3918;42.564;23.164;2024-02-26T13:19:36;-11650.84;;;-142.29;76.04
7748;BME280;3918;42.564;23.164;2024-02-26T13:22:05;-11650.84;;;-142.29;75.56
7748;BME280;3918;42.564;23.164;2024-02-26T13:24:33;-11650.84;;;-142.29;74.31
7748;BME280;3918;42.564;23.164;2024-02-26T13:26:59;-11650.84;;;-142.29;74.03
7748;BME280;3918;42.564;23.164;2024-02-26T13:29:28;-11650.84;;;-142.29;74.69
7748;BME280;3918;42.564;23.164;2024-02-26T13:31:55;-11650.84;;;-142.29;75.95
7748;BME280;3918;42.564;23.164;2024-02-26T13:34:24;-11650.84;;;-142.29;78.41
7748;BME280;3918;42.564;23.164;2024-02-26T13:36:52;-11650.84;;;-142.29;77.56
7748;BME280;3918;42.564;23.164;2024-02-26T13:39:24;-11650.84;;;-142.29;77.18
7748;BME280;3918;42.564;23.164;2024-02-26T13:41:51;-11650.84;;;-142.29;76.87
7748;BME280;3918;42.564;23.164;2024-02-26T13:44:19;-11650.84;;;-142.29;74.42
7748;BME280;3918;42.564;23.164;2024-02-26T13:46:46;-11650.84;;;-142.29;75.84
7748;BME280;3918;42.564;23.164;2024-02-26T13:49:13;-11650.84;;;-142.29;74.80
7748;BME280;3918;42.564;23.164;2024-02-26T13:51:42;-11650.84;;;-142.29;76.61
7748;BME280;3918;42.564;23.164;2024-02-26T13:54:09;-11650.84;;;-142.29;75.00
7748;BME280;3918;42.564;23.164;2024-02-26T13:56:37;-11650.84;;;-142.29;77.63
7748;BME280;3918;42.564;23.164;2024-02-26T13:59:04;-11650.84;;;-142.29;76.78
7748;BME280;3918;42.564;23.164;2024-02-26T14:01:31;-11650.84;;;-142.29;77.95
7748;BME280;3918;42.564;23.164;2024-02-26T14:03:59;-11650.84;;;-142.29;78.99
7748;BME280;3918;42.564;23.164;2024-02-26T14:06:27;-11650.84;;;-142.29;81.22
7748;BME280;3918;42.564;23.164;2024-02-26T14:08:54;-11650.84;;;-142.29;82.89
7748;BME280;3918;42.564;23.164;2024-02-26T14:11:20;-11650.84;;;-142.29;84.86
7748;BME280;3918;42.564;23.164;2024-02-26T14:13:48;-11650.84;;;-142.29;84.21
7748;BME280;3918;42.564;23.164;2024-02-26T14:16:15;-11650.84;;;-142.29;83.32
7748;BME280;3918;42.564;23.164;2024-02-26T14:18:42;-11650.84;;;-142.29;82.55
7748;BME280;3918;42.564;23.164;2024-02-26T14:21:10;-11650.84;;;-142.29;82.54
7748;BME280;3918;42.564;23.164;2024-02-26T14:23:37;-11650.84;;;-142.29;82.56
7748;BME280;3918;42.564;23.164;2024-02-26T14:26:04;-11650.84;;;-142.29;82.98
7748;BME280;3918;42.564;23.164;2024-02-26T14:28:30;-11650.84;;;-142.29;82.78
7748;BME280;3918;42.564;23.164;2024-02-26T14:30:59;-11650.84;;;-142.29;83.13
7748;BME280;3918;42.564;23.164;2024-02-26T14:33:26;-11650.84;;;-142.29;82.98
7748;BME280;3918;42.564;23.164;2024-02-26T14:35:53;-11650.84;;;-142.29;84.08
7748;BME280;3918;42.564;23.164;2024-02-26T14:38:20;-11650.84;;;-142.29;85.73
7748;BME280;3918;42.564;23.164;2024-02-26T14:40:46;-11650.84;;;-142.29;86.68
7748;BME280;3918;42.564;23.164;2024-02-26T14:43:13;-11650.84;;;-142.29;87.16
7748;BME280;3918;42.564;23.164;2024-02-26T14:45:40;-11650.84;;;-142.29;88.82
7748;BME280;3918;42.564;23.164;2024-02-26T14:48:09;-11650.84;;;-142.29;89.91
7748;BME280;3918;42.564;23.164;2024-02-26T14:50:36;-11650.84;;;-142.29;91.70
7748;BME280;3918;42.564;23.164;2024-02-26T14:53:03;-11650.84;;;-142.29;93.62
7748;BME280;3918;42.564;23.164;2024-02-26T14:55:30;-11650.84;;;-142.29;93.54
7748;BME280;3918;42.564;23.164;2024-02-26T14:57:57;-11650.84;;;-142.29;93.86
7748;BME280;3918;42.564;23.164;2024-02-26T15:00:24;-11650.84;;;-142.29;94.16
7748;BME280;3918;42.564;23.164;2024-02-26T15:02:51;-11650.84;;;-142.29;93.20
7748;BME280;3918;42.564;23.164;2024-02-26T15:05:21;-11650.84;;;-142.29;92.68
7748;BME280;3918;42.564;23.164;2024-02-26T15:07:48;-11650.84;;;-142.29;91.67
7748;BME280;3918;42.564;23.164;2024-02-26T15:10:15;-11650.84;;;-142.29;94.23
7748;BME280;3918;42.564;23.164;2024-02-26T15:12:41;-11650.84;;;-142.29;94.87
7748;BME280;3918;42.564;23.164;2024-02-26T15:15:08;-11650.84;;;-142.29;94.27
7748;BME280;3918;42.564;23.164;2024-02-26T15:17:35;-11650.84;;;-142.29;96.80
7748;BME280;3918;42.564;23.164;2024-02-26T15:20:03;-11650.84;;;-142.29;97.05
7748;BME280;3918;42.564;23.164;2024-02-26T15:22:34;-11650.84;;;-142.29;97.29
7748;BME280;3918;42.564;23.164;2024-02-26T15:25:00;-11650.84;;;-142.29;98.33
7748;BME280;3918;42.564;23.164;2024-02-26T15:27:27;-11650.84;;;-142.29;98.98
7748;BME280;3918;42.564;23.164;2024-02-26T15:29:54;-11650.84;;;-142.29;100.00
7748;BME280;3918;42.564;23.164;2024-02-26T15:32:23;-11650.84;;;-142.29;100.00
7748;BME280;3918;42.564;23.164;2024-02-26T15:34:52;-11650.84;;;-142.29;100.00
7748;BME280;3918;42.564;23.164;2024-02-26T15:37:18;-11650.84;;;-142.29;100.00
7748;BME280;3918;42.564;23.164;2024-02-26T15:39:47;-11650.84;;;-142.29;100.00
7748;BME280;3918;42.564;23.164;2024-02-26T15:42:14;-11650.84;;;-142.29;100.00
7748;BME280;3918;42.564;23.164;2024-02-26T15:44:41;-11650.84;;;-142.29;100.00
7748;BME280;3918;42.564;23.164;2024-02-26T15:47:08;-11650.84;;;-142.29;100.00
7748;BME280;3918;42.564;23.164;2024-02-26T15:49:35;-11650.84;;;-142.29;100.00
7748;BME280;3918;42.564;23.164;2024-02-26T15:52:02;-11650.84;;;-142.29;100.00
7748;BME280;3918;42.564;23.164;2024-02-26T15:54:30;-11650.84;;;-142.29;100.00
7748;BME280;3918;42.564;23.164;2024-02-26T15:56:58;-11650.84;;;-142.29;100.00
7748;BME280;3918;42.564;23.164;2024-02-26T15:59:25;-11650.84;;;-142.29;100.00
7748;BME280;3918;42.564;23.164;2024-02-26T16:01:51;-11650.84;;;-142.29;100.00
7748;BME280;3918;42.564;23.164;2024-02-26T16:04:18;-11650.84;;;-142.29;100.00
7748;BME280;3918;42.564;23.164;2024-02-26T16:06:48;-11650.84;;;-142.29;100.00
7748;BME280;3918;42.564;23.164;2024-02-26T16:09:16;-11650.84;;;-142.29;100.00
7748;BME280;3918;42.564;23.164;2024-02-26T16:11:43;-11650.84;;;-142.29;100.00
7748;BME280;3918;42.564;23.164;2024-02-26T16:14:18;-11650.84;;;-142.29;100.00
7748;BME280;3918;42.564;23.164;2024-02-26T16:16:52;-11650.84;;;-142.29;100.00
7748;BME280;3918;42.564;23.164;2024-02-26T16:19:22;-11650.84;;;-142.29;100.00
7748;BME280;3918;42.564;23.164;2024-02-26T16:21:49;-11650.84;;;-142.29;100.00
7748;BME280;3918;42.564;23.164;2024-02-26T16:24:16;-11650.84;;;-142.29;100.00
7748;BME280;3918;42.564;23.164;2024-02-26T16:26:43;-11650.84;;;-142.29;100.00
7748;BME280;3918;42.564;23.164;2024-02-26T16:29:09;-11650.84;;;-142.29;100.00
7748;BME280;3918;42.564;23.164;2024-02-26T16:31:37;-11650.84;;;-142.29;100.00
7748;BME280;3918;42.564;23.164;2024-02-26T16:34:04;-11650.84;;;-142.29;100.00
7748;BME280;3918;42.564;23.164;2024-02-26T16:36:31;-11650.84;;;-142.29;100.00
7748;BME280;3918;42.564;23.164;2024-02-26T16:38:58;-11650.84;;;-142.29;100.00
7748;BME280;3918;42.564;23.164;2024-02-26T16:41:25;-11650.84;;;-142.29;100.00
7748;BME280;3918;42.564;23.164;2024-02-26T16:43:52;-11650.84;;;-142.29;100.00
7748;BME280;3918;42.564;23.164;2024-02-26T16:46:19;-11650.84;;;-142.29;100.00
7748;BME280;3918;42.564;23.164;2024-02-26T16:48:47;-11650.84;;;-142.29;100.00
7748;BME280;3918;42.564;23.164;2024-02-26T16:51:16;-11650.84;;;-142.29;100.00
7748;BME280;3918;42.564;23.164;2024-02-26T16:53:43;-11650.84;;;-142.29;100.00
7748;BME280;3918;42.564;23.164;2024-02-26T16:56:09;-11650.84;;;-142.29;100.00
7748;BME280;3918;42.564;23.164;2024-02-26T16:58:36;-11650.84;;;-142.29;100.00
7748;BME280;3918;42.564;23.164;2024-02-26T17:01:03;-11650.84;;;-142.29;100.00
7748;BME280;3918;42.564;23.164;2024-02-26T17:03:30;-11650.84;;;-142.29;100.00
7748;BME280;3918;42.564;23.164;2024-02-26T17:05:58;-11650.84;;;-142.29;100.00
7748;BME280;3918;42.564;23.164;2024-02-26T17:08:25;-11650.84;;;-142.29;100.00
7748;BME280;3918;42.564;23.164;2024-02-26T17:10:53;-11650.84;;;-142.29;100.00
7748;BME280;3918;42.564;23.164;2024-02-26T17:13:20;-11650.84;;;-142.29;100.00
7748;BME280;3918;42.564;23.164;2024-02-26T17:15:48;-11650.84;;;-142.29;100.00
7748;BME280;3918;42.564;23.164;2024-02-26T17:18:14;-11650.84;;;-142.29;100.00
7748;BME280;3918;42.564;23.164;2024-02-26T17:20:42;-11650.84;;;-142.29;100.00
7748;BME280;3918;42.564;23.164;2024-02-26T17:23:10;-11650.84;;;-142.29;100.00
7748;BME280;3918;42.564;23.164;2024-02-26T17:25:37;-11650.84;;;-142.29;100.00
7748;BME280;3918;42.564;23.164;2024-02-26T17:28:04;-11650.84;;;-142.29;100.00
7748;BME280;3918;42.564;23.164;2024-02-26T17:30:34;-11650.84;;;-142.29;100.00
7748;BME280;3918;42.564;23.164;2024-02-26T17:33:01;-11650.84;;;-142.29;100.00
7748;BME280;3918;42.564;23.164;2024-02-26T17:35:28;-11650.84;;;-142.29;100.00
7748;BME280;3918;42.564;23.164;2024-02-26T17:37:55;-11650.84;;;-142.29;100.00